sensor_id;sensor_type;location;lat;lon;timestamp;pressure;altitude;pressure_sealevel;temperature;humidity
21594;BME280;10959;51.328;7.322;2023-03-03T00:02:22;99365.00;;;2.17;87.21
21594;BME280;10959;51.328;7.322;2023-03-03T00:04:49;99365.84;;;2.19;86.97
21594;BME280;10959;51.328;7.322;2023-03-03T00:07:15;99356.00;;;2.34;86.94
21594;BME280;10959;51.328;7.322;2023-03-03T00:09:49;99361.34;;;2.29;86.54
21594;BME280;10959;51.328;7.322;2023-03-03T00:12:20;99365.13;;;1.91;87.19
21594;BME280;10959;51.328;7.322;2023-03-03T00:14:48;99369.56;;;1.90;87.44
21594;BME280;10959;51.328;7.322;2023-03-03T00:17:20;99368.84;;;1.59;89.08
21594;BME280;10959;51.328;7.322;2023-03-03T00:19:47;99372.25;;;1.89;89.06
21594;BME280;10959;51.328;7.322;2023-03-03T00:22:21;99374.94;;;1.78;88.63
21594;BME280;10959;51.328;7.322;2023-03-03T00:24:53;99374.19;;;1.53;89.22
21594;BME280;10959;51.328;7.322;2023-03-03T00:27:27;99375.84;;;1.71;89.55
21594;BME280;10959;51.328;7.322;2023-03-03T00:29:56;99386.50;;;1.59;89.19
21594;BME280;10959;51.328;7.322;2023-03-03T00:32:25;99374.16;;;1.50;90.24
21594;BME280;10959;51.328;7.322;2023-03-03T00:34:53;99375.00;;;1.69;89.98
21594;BME280;10959;51.328;7.322;2023-03-03T00:37:29;99382.13;;;1.51;90.53
21594;BME280;10959;51.328;7.322;2023-03-03T00:40:10;99378.47;;;1.77;89.42
21594;BME280;10959;51.328;7.322;2023-03-03T00:42:38;99373.09;;;1.89;88.79
21594;BME280;10959;51.328;7.322;2023-03-03T00:45:20;99373.09;;;1.93;88.25
21594;BME280;10959;51.328;7.322;2023-03-03T00:47:49;99376.56;;;2.10;87.97
21594;BME280;10959;51.328;7.322;2023-03-03T00:50:31;99372.19;;;1.94;87.68
21594;BME280;10959;51.328;7.322;2023-03-03T00:53:06;99385.41;;;2.09;87.19
21594;BME280;10959;51.328;7.322;2023-03-03T00:55:38;99389.72;;;2.25;86.64
21594;BME280;10959;51.328;7.322;2023-03-03T00:58:04;99381.72;;;2.32;86.07
21594;BME280;10959;51.328;7.322;2023-03-03T01:00:31;99384.56;;;1.98;86.83
21594;BME280;10959;51.328;7.322;2023-03-03T01:02:59;99392.63;;;1.82;87.94
21594;BME280;10959;51.328;7.322;2023-03-03T01:05:27;99396.16;;;1.78;87.89
21594;BME280;10959;51.328;7.322;2023-03-03T01:07:53;99393.66;;;1.44;88.67
21594;BME280;10959;51.328;7.322;2023-03-03T01:10:20;99392.72;;;1.51;89.51
21594;BME280;10959;51.328;7.322;2023-03-03T01:12:48;99385.75;;;1.32;89.86
21594;BME280;10959;51.328;7.322;2023-03-03T01:15:15;99382.06;;;1.67;89.73
21594;BME280;10959;51.328;7.322;2023-03-03T01:17:41;99385.63;;;1.60;88.87
21594;BME280;10959;51.328;7.322;2023-03-03T01:20:10;99385.69;;;1.41;88.75
21594;BME280;10959;51.328;7.322;2023-03-03T01:22:37;99379.50;;;1.44;90.00
21594;BME280;10959;51.328;7.322;2023-03-03T01:25:05;99382.22;;;1.14;90.71
21594;BME280;10959;51.328;7.322;2023-03-03T01:27:33;99383.94;;;1.34;90.04
21594;BME280;10959;51.328;7.322;2023-03-03T01:30:02;99384.00;;;1.25;89.94
21594;BME280;10959;51.328;7.322;2023-03-03T01:32:28;99380.38;;;1.43;90.66
21594;BME280;10959;51.328;7.322;2023-03-03T01:34:55;99383.06;;;1.38;90.55
21594;BME280;10959;51.328;7.322;2023-03-03T01:37:21;99383.16;;;0.96;91.03
21594;BME280;10959;51.328;7.322;2023-03-03T01:39:49;99387.59;;;0.86;92.72
21594;BME280;10959;51.328;7.322;2023-03-03T01:42:16;99394.63;;;1.09;92.35
21594;BME280;10959;51.328;7.322;2023-03-03T01:44:43;99384.00;;;1.12;92.21
21594;BME280;10959;51.328;7.322;2023-03-03T01:47:12;99380.53;;;0.79;92.83
21594;BME280;10959;51.328;7.322;2023-03-03T01:49:45;99387.56;;;1.02;92.18
21594;BME280;10959;51.328;7.322;2023-03-03T01:52:19;99382.22;;;1.11;92.04
21594;BME280;10959;51.328;7.322;2023-03-03T01:54:49;99378.75;;;1.03;92.21
21594;BME280;10959;51.328;7.322;2023-03-03T01:57:22;99382.25;;;1.07;92.67
21594;BME280;10959;51.328;7.322;2023-03-03T01:59:51;99382.22;;;1.14;92.02
21594;BME280;10959;51.328;7.322;2023-03-03T02:02:20;99384.84;;;1.34;91.71
21594;BME280;10959;51.328;7.322;2023-03-03T02:04:48;99372.44;;;1.40;91.08
21594;BME280;10959;51.328;7.322;2023-03-03T02:07:15;99375.00;;;1.66;90.45
21594;BME280;10959;51.328;7.322;2023-03-03T02:09:50;99379.41;;;1.65;90.03
21594;BME280;10959;51.328;7.322;2023-03-03T02:12:19;99379.38;;;1.71;90.04
21594;BME280;10959;51.328;7.322;2023-03-03T02:14:48;99380.19;;;1.90;88.80
21594;BME280;10959;51.328;7.322;2023-03-03T02:17:15;99394.41;;;1.74;89.61
21594;BME280;10959;51.328;7.322;2023-03-03T02:19:51;99383.84;;;1.68;88.49
21594;BME280;10959;51.328;7.322;2023-03-03T02:22:28;99383.81;;;1.71;88.82
21594;BME280;10959;51.328;7.322;2023-03-03T02:24:58;99383.81;;;1.74;89.34
21594;BME280;10959;51.328;7.322;2023-03-03T02:27:27;99384.69;;;1.75;89.35
21594;BME280;10959;51.328;7.322;2023-03-03T02:29:56;99381.28;;;1.42;89.88
21594;BME280;10959;51.328;7.322;2023-03-03T02:32:23;99376.75;;;1.67;90.30
21594;BME280;10959;51.328;7.322;2023-03-03T02:34:50;99375.84;;;1.79;89.97
21594;BME280;10959;51.328;7.322;2023-03-03T02:37:18;99367.84;;;1.83;89.04
21594;BME280;10959;51.328;7.322;2023-03-03T02:39:45;99364.31;;;1.78;89.05
21594;BME280;10959;51.328;7.322;2023-03-03T02:42:14;99360.72;;;1.85;88.90
21594;BME280;10959;51.328;7.322;2023-03-03T02:44:43;99357.19;;;1.86;89.30
21594;BME280;10959;51.328;7.322;2023-03-03T02:47:10;99364.19;;;2.00;88.93
21594;BME280;10959;51.328;7.322;2023-03-03T02:49:37;99373.00;;;2.08;88.20
21594;BME280;10959;51.328;7.322;2023-03-03T02:52:05;99385.41;;;2.09;87.50
21594;BME280;10959;51.328;7.322;2023-03-03T02:54:34;99390.75;;;2.00;87.77
21594;BME280;10959;51.328;7.322;2023-03-03T02:57:00;99393.56;;;1.70;88.56
21594;BME280;10959;51.328;7.322;2023-03-03T02:59:27;99390.00;;;1.71;89.64
21594;BME280;10959;51.328;7.322;2023-03-03T03:01:56;99384.66;;;1.82;89.54
21594;BME280;10959;51.328;7.322;2023-03-03T03:04:24;99401.47;;;1.78;89.40
21594;BME280;10959;51.328;7.322;2023-03-03T03:06:52;99395.31;;;1.68;89.78
21594;BME280;10959;51.328;7.322;2023-03-03T03:09:20;99387.34;;;1.70;89.48
21594;BME280;10959;51.328;7.322;2023-03-03T03:11:47;99392.72;;;1.58;89.47
21594;BME280;10959;51.328;7.322;2023-03-03T03:14:14;99396.19;;;1.75;89.23
21594;BME280;10959;51.328;7.322;2023-03-03T03:16:40;99390.84;;;1.84;88.84
21594;BME280;10959;51.328;7.322;2023-03-03T03:19:09;99389.09;;;1.74;89.17
21594;BME280;10959;51.328;7.322;2023-03-03T03:21:35;99396.25;;;1.66;89.72
21594;BME280;10959;51.328;7.322;2023-03-03T03:24:02;99398.03;;;1.51;90.31
21594;BME280;10959;51.328;7.322;2023-03-03T03:26:28;99401.66;;;1.21;90.60
21594;BME280;10959;51.328;7.322;2023-03-03T03:28:55;99393.63;;;1.53;90.21
21594;BME280;10959;51.328;7.322;2023-03-03T03:31:21;99390.94;;;1.66;90.32
21594;BME280;10959;51.328;7.322;2023-03-03T03:33:48;99403.38;;;1.48;89.62
21594;BME280;10959;51.328;7.322;2023-03-03T03:36:16;99403.34;;;1.51;90.29
21594;BME280;10959;51.328;7.322;2023-03-03T03:38:43;99394.50;;;1.62;89.38
21594;BME280;10959;51.328;7.322;2023-03-03T03:41:10;99405.00;;;1.83;89.07
21594;BME280;10959;51.328;7.322;2023-03-03T03:43:37;99401.59;;;1.53;90.43
21594;BME280;10959;51.328;7.322;2023-03-03T03:46:04;99399.84;;;1.46;90.32
21594;BME280;10959;51.328;7.322;2023-03-03T03:48:31;99387.38;;;1.67;90.50
21594;BME280;10959;51.328;7.322;2023-03-03T03:50:57;99397.06;;;1.80;89.40
21594;BME280;10959;51.328;7.322;2023-03-03T03:53:25;99404.09;;;1.90;89.28
21594;BME280;10959;51.328;7.322;2023-03-03T03:55:51;99408.59;;;1.76;89.10
21594;BME280;10959;51.328;7.322;2023-03-03T03:58:18;99403.25;;;1.79;89.02
21594;BME280;10959;51.328;7.322;2023-03-03T04:00:45;99400.56;;;1.84;89.25
21594;BME280;10959;51.328;7.322;2023-03-03T04:03:12;99408.56;;;1.79;89.72
21594;BME280;10959;51.328;7.322;2023-03-03T04:05:39;99412.97;;;1.86;88.92
21594;BME280;10959;51.328;7.322;2023-03-03T04:08:06;99422.59;;;2.03;88.44
21594;BME280;10959;51.328;7.322;2023-03-03T04:10:35;99419.31;;;1.45;89.97
21594;BME280;10959;51.328;7.322;2023-03-03T04:13:01;99418.50;;;1.22;91.53
21594;BME280;10959;51.328;7.322;2023-03-03T04:15:27;99421.09;;;1.37;91.67
21594;BME280;10959;51.328;7.322;2023-03-03T04:17:54;99423.69;;;1.52;90.92
21594;BME280;10959;51.328;7.322;2023-03-03T04:20:20;99415.75;;;1.52;90.38
21594;BME280;10959;51.328;7.322;2023-03-03T04:22:47;99421.06;;;1.46;89.87
21594;BME280;10959;51.328;7.322;2023-03-03T04:25:15;99414.03;;;1.39;90.94
21594;BME280;10959;51.328;7.322;2023-03-03T04:27:43;99414.97;;;1.09;91.14
21594;BME280;10959;51.328;7.322;2023-03-03T04:30:11;99417.63;;;1.13;91.67
21594;BME280;10959;51.328;7.322;2023-03-03T04:32:38;99418.44;;;1.37;91.43
21594;BME280;10959;51.328;7.322;2023-03-03T04:35:05;99422.88;;;1.35;91.04
21594;BME280;10959;51.328;7.322;2023-03-03T04:37:32;99423.72;;;1.38;91.12
21594;BME280;10959;51.328;7.322;2023-03-03T04:39:58;99417.47;;;1.64;89.97
21594;BME280;10959;51.328;7.322;2023-03-03T04:42:25;99419.28;;;1.58;90.29
21594;BME280;10959;51.328;7.322;2023-03-03T04:44:53;99415.72;;;1.59;89.86
21594;BME280;10959;51.328;7.322;2023-03-03T04:47:20;99419.25;;;1.61;89.67
21594;BME280;10959;51.328;7.322;2023-03-03T04:49:46;99422.88;;;1.26;90.53
21594;BME280;10959;51.328;7.322;2023-03-03T04:52:13;99412.25;;;1.26;91.26
21594;BME280;10959;51.328;7.322;2023-03-03T04:54:39;99428.13;;;1.44;91.02
21594;BME280;10959;51.328;7.322;2023-03-03T04:57:06;99428.16;;;1.50;90.48
21594;BME280;10959;51.328;7.322;2023-03-03T04:59:34;99428.09;;;1.63;90.40
21594;BME280;10959;51.328;7.322;2023-03-03T05:02:02;99433.41;;;1.66;89.98
21594;BME280;10959;51.328;7.322;2023-03-03T05:04:29;99420.09;;;1.75;89.86
21594;BME280;10959;51.328;7.322;2023-03-03T05:06:56;99428.09;;;1.60;89.29
21594;BME280;10959;51.328;7.322;2023-03-03T05:09:22;99424.63;;;1.42;90.54
21594;BME280;10959;51.328;7.322;2023-03-03T05:11:49;99421.03;;;1.52;90.55
21594;BME280;10959;51.328;7.322;2023-03-03T05:14:15;99422.88;;;1.35;90.43
21594;BME280;10959;51.328;7.322;2023-03-03T05:16:42;99426.41;;;1.43;90.88
21594;BME280;10959;51.328;7.322;2023-03-03T05:19:10;99424.66;;;1.27;90.98
21594;BME280;10959;51.328;7.322;2023-03-03T05:21:36;99417.53;;;1.41;91.19
21594;BME280;10959;51.328;7.322;2023-03-03T05:24:06;99417.50;;;1.57;90.29
21594;BME280;10959;51.328;7.322;2023-03-03T05:26:33;99421.03;;;1.55;90.73
21594;BME280;10959;51.328;7.322;2023-03-03T05:28:59;99421.03;;;1.55;90.96
21594;BME280;10959;51.328;7.322;2023-03-03T05:31:26;99421.94;;;1.54;90.83
21594;BME280;10959;51.328;7.322;2023-03-03T05:33:53;99417.47;;;1.63;90.11
21594;BME280;10959;51.328;7.322;2023-03-03T05:36:21;99422.78;;;1.61;90.65
21594;BME280;10959;51.328;7.322;2023-03-03T05:38:47;99417.44;;;1.75;89.65
21594;BME280;10959;51.328;7.322;2023-03-03T05:41:14;99415.72;;;1.62;89.97
21594;BME280;10959;51.328;7.322;2023-03-03T05:43:40;99414.84;;;1.55;89.58
21594;BME280;10959;51.328;7.322;2023-03-03T05:46:07;99417.56;;;1.35;90.26
21594;BME280;10959;51.328;7.322;2023-03-03T05:48:33;99430.81;;;1.43;90.46
21594;BME280;10959;51.328;7.322;2023-03-03T05:50:59;99435.25;;;1.27;90.93
21594;BME280;10959;51.328;7.322;2023-03-03T05:53:28;99421.09;;;1.31;90.52
21594;BME280;10959;51.328;7.322;2023-03-03T05:55:54;99424.63;;;1.39;90.52
21594;BME280;10959;51.328;7.322;2023-03-03T05:58:21;99428.19;;;1.23;90.85
21594;BME280;10959;51.328;7.322;2023-03-03T06:00:48;99435.28;;;1.05;91.33
21594;BME280;10959;51.328;7.322;2023-03-03T06:03:14;99437.94;;;1.19;91.82
21594;BME280;10959;51.328;7.322;2023-03-03T06:05:41;99428.16;;;1.38;91.33
21594;BME280;10959;51.328;7.322;2023-03-03T06:08:07;99445.84;;;1.33;91.34
21594;BME280;10959;51.328;7.322;2023-03-03T06:10:35;99447.56;;;1.55;90.62
21594;BME280;10959;51.328;7.322;2023-03-03T06:13:02;99445.81;;;1.54;90.08
21594;BME280;10959;51.328;7.322;2023-03-03T06:15:28;99444.06;;;1.52;89.99
21594;BME280;10959;51.328;7.322;2023-03-03T06:17:55;99452.88;;;1.62;89.83
21594;BME280;10959;51.328;7.322;2023-03-03T06:20:22;99459.97;;;1.66;89.30
21594;BME280;10959;51.328;7.322;2023-03-03T06:22:48;99462.59;;;1.70;89.74
21594;BME280;10959;51.328;7.322;2023-03-03T06:25:15;99468.78;;;1.71;88.83
21594;BME280;10959;51.328;7.322;2023-03-03T06:27:43;99459.88;;;1.81;88.79
21594;BME280;10959;51.328;7.322;2023-03-03T06:30:10;99466.94;;;1.85;88.15
21594;BME280;10959;51.328;7.322;2023-03-03T06:32:37;99474.00;;;1.93;88.52
21594;BME280;10959;51.328;7.322;2023-03-03T06:35:04;99474.00;;;1.93;88.46
21594;BME280;10959;51.328;7.322;2023-03-03T06:37:31;99469.59;;;1.87;88.33
21594;BME280;10959;51.328;7.322;2023-03-03T06:39:57;99477.63;;;1.70;89.17
21594;BME280;10959;51.328;7.322;2023-03-03T06:42:24;99469.66;;;1.78;88.70
21594;BME280;10959;51.328;7.322;2023-03-03T06:44:52;99475.81;;;1.78;88.69
21594;BME280;10959;51.328;7.322;2023-03-03T06:47:19;99472.31;;;1.73;88.57
21594;BME280;10959;51.328;7.322;2023-03-03T06:49:45;99468.81;;;1.55;89.11
21594;BME280;10959;51.328;7.322;2023-03-03T06:52:18;99476.75;;;1.68;88.89
21594;BME280;10959;51.328;7.322;2023-03-03T06:54:44;99478.47;;;1.84;88.90
21594;BME280;10959;51.328;7.322;2023-03-03T06:57:16;99487.44;;;1.42;88.88
21594;BME280;10959;51.328;7.322;2023-03-03T06:59:43;99481.22;;;1.50;89.80
21594;BME280;10959;51.328;7.322;2023-03-03T07:02:16;99493.59;;;1.48;89.11
21594;BME280;10959;51.328;7.322;2023-03-03T07:04:43;99490.03;;;1.66;89.04
21594;BME280;10959;51.328;7.322;2023-03-03T07:07:16;99489.16;;;1.58;89.29
21594;BME280;10959;51.328;7.322;2023-03-03T07:09:43;99491.81;;;1.60;88.99
21594;BME280;10959;51.328;7.322;2023-03-03T07:12:12;99498.00;;;1.62;89.32
21594;BME280;10959;51.328;7.322;2023-03-03T07:14:44;99497.16;;;1.26;89.99
21594;BME280;10959;51.328;7.322;2023-03-03T07:17:16;99498.94;;;1.30;90.05
21594;BME280;10959;51.328;7.322;2023-03-03T07:19:43;99489.16;;;1.60;89.74
21594;BME280;10959;51.328;7.322;2023-03-03T07:22:15;99491.81;;;1.60;88.72
21594;BME280;10959;51.328;7.322;2023-03-03T07:24:43;99497.94;;;1.76;88.67
21594;BME280;10959;51.328;7.322;2023-03-03T07:27:12;99500.59;;;1.77;88.46
21594;BME280;10959;51.328;7.322;2023-03-03T07:29:39;99504.19;;;1.73;88.46
21594;BME280;10959;51.328;7.322;2023-03-03T07:32:20;99505.91;;;1.86;87.08
21594;BME280;10959;51.328;7.322;2023-03-03T07:34:48;99502.34;;;1.90;87.23
21594;BME280;10959;51.328;7.322;2023-03-03T07:37:21;99505.81;;;2.08;86.70
21594;BME280;10959;51.328;7.322;2023-03-03T07:39:51;99510.28;;;2.06;86.96
21594;BME280;10959;51.328;7.322;2023-03-03T07:42:21;99518.16;;;2.21;86.77
21594;BME280;10959;51.328;7.322;2023-03-03T07:44:50;99518.13;;;2.31;86.49
21594;BME280;10959;51.328;7.322;2023-03-03T07:47:21;99527.97;;;2.01;86.75
21594;BME280;10959;51.328;7.322;2023-03-03T07:49:49;99536.84;;;1.97;86.34
21594;BME280;10959;51.328;7.322;2023-03-03T07:52:22;99541.31;;;1.85;86.50
21594;BME280;10959;51.328;7.322;2023-03-03T07:54:50;99537.78;;;1.80;87.78
21594;BME280;10959;51.328;7.322;2023-03-03T07:57:20;99546.56;;;2.01;86.75
21594;BME280;10959;51.328;7.322;2023-03-03T08:02:55;99534.22;;;1.90;87.00
21594;BME280;10959;51.328;7.322;2023-03-03T08:05:28;99539.50;;;2.04;87.15
21594;BME280;10959;51.328;7.322;2023-03-03T08:08:09;99549.25;;;1.85;86.98
21594;BME280;10959;51.328;7.322;2023-03-03T08:10:42;99548.41;;;1.74;87.42
21594;BME280;10959;51.328;7.322;2023-03-03T08:13:16;99551.94;;;1.92;86.60
21594;BME280;10959;51.328;7.322;2023-03-03T08:15:44;99558.03;;;2.17;86.32
21594;BME280;10959;51.328;7.322;2023-03-03T08:18:20;99554.56;;;1.87;86.62
21594;BME280;10959;51.328;7.322;2023-03-03T08:20:59;99552.84;;;1.84;85.95
21594;BME280;10959;51.328;7.322;2023-03-03T08:23:27;99558.91;;;2.14;86.29
21594;BME280;10959;51.328;7.322;2023-03-03T08:25:53;99563.41;;;2.04;86.54
21594;BME280;10959;51.328;7.322;2023-03-03T08:28:20;99561.50;;;2.31;85.94
21594;BME280;10959;51.328;7.322;2023-03-03T08:30:47;99560.59;;;2.37;85.51
21594;BME280;10959;51.328;7.322;2023-03-03T08:33:16;99560.63;;;2.34;85.58
21594;BME280;10959;51.328;7.322;2023-03-03T08:35:44;99572.97;;;2.47;85.34
21594;BME280;10959;51.328;7.322;2023-03-03T08:38:11;99563.38;;;2.00;85.42
21594;BME280;10959;51.328;7.322;2023-03-03T08:40:38;99559.81;;;2.15;86.03
21594;BME280;10959;51.328;7.322;2023-03-03T08:43:05;99568.66;;;2.24;86.26
21594;BME280;10959;51.328;7.322;2023-03-03T08:45:32;99569.53;;;2.22;85.58
21594;BME280;10959;51.328;7.322;2023-03-03T08:47:58;99574.81;;;2.27;85.64
21594;BME280;10959;51.328;7.322;2023-03-03T08:50:27;99579.19;;;2.40;84.93
21594;BME280;10959;51.328;7.322;2023-03-03T08:52:54;99581.03;;;2.21;85.48
21594;BME280;10959;51.328;7.322;2023-03-03T08:55:20;99577.56;;;2.06;85.71
21594;BME280;10959;51.328;7.322;2023-03-03T08:57:47;99589.09;;;1.92;86.22
21594;BME280;10959;51.328;7.322;2023-03-03T09:00:15;99580.16;;;2.27;85.99
21594;BME280;10959;51.328;7.322;2023-03-03T09:02:42;99588.06;;;2.42;85.02
21594;BME280;10959;51.328;7.322;2023-03-03T09:05:09;99589.75;;;2.62;85.13
21594;BME280;10959;51.328;7.322;2023-03-03T09:07:38;99594.16;;;2.66;84.32
21594;BME280;10959;51.328;7.322;2023-03-03T09:10:06;99601.31;;;2.48;83.69
21594;BME280;10959;51.328;7.322;2023-03-03T09:12:34;99604.09;;;2.13;84.05
21594;BME280;10959;51.328;7.322;2023-03-03T09:15:12;99599.72;;;1.95;85.40
21594;BME280;10959;51.328;7.322;2023-03-03T09:17:40;99599.63;;;2.22;84.98
21594;BME280;10959;51.328;7.322;2023-03-03T09:20:22;99603.28;;;1.77;86.15
21594;BME280;10959;51.328;7.322;2023-03-03T09:22:50;99601.50;;;1.83;86.77
21594;BME280;10959;51.328;7.322;2023-03-03T09:25:21;99600.56;;;2.00;86.46
21594;BME280;10959;51.328;7.322;2023-03-03T09:27:48;99601.44;;;2.11;85.83
21594;BME280;10959;51.328;7.322;2023-03-03T09:30:31;99593.53;;;1.59;86.58
21594;BME280;10959;51.328;7.322;2023-03-03T09:33:01;99596.13;;;2.08;86.46
21594;BME280;10959;51.328;7.322;2023-03-03T09:35:41;99603.16;;;2.31;86.11
21594;BME280;10959;51.328;7.322;2023-03-03T09:38:22;99596.94;;;2.35;84.96
21594;BME280;10959;51.328;7.322;2023-03-03T09:40:59;99599.56;;;2.44;84.28
21594;BME280;10959;51.328;7.322;2023-03-03T09:43:36;99602.16;;;2.61;84.28
21594;BME280;10959;51.328;7.322;2023-03-03T09:46:12;99611.81;;;2.79;83.44
21594;BME280;10959;51.328;7.322;2023-03-03T09:48:58;99608.28;;;2.75;83.47
21594;BME280;10959;51.328;7.322;2023-03-03T09:51:52;99617.19;;;2.70;82.16
21594;BME280;10959;51.328;7.322;2023-03-03T09:54:31;99613.69;;;2.58;82.65
21594;BME280;10959;51.328;7.322;2023-03-03T10:00:18;99628.78;;;2.46;82.69
21594;BME280;10959;51.328;7.322;2023-03-03T10:03:02;99625.22;;;2.56;82.50
21594;BME280;10959;51.328;7.322;2023-03-03T10:05:43;99618.94;;;2.74;82.12
21594;BME280;10959;51.328;7.322;2023-03-03T10:11:16;99624.25;;;2.74;81.92
21594;BME280;10959;51.328;7.322;2023-03-03T10:17:00;99628.59;;;2.95;81.48
21594;BME280;10959;51.328;7.322;2023-03-03T10:19:38;99641.84;;;3.00;81.33
21594;BME280;10959;51.328;7.322;2023-03-03T10:22:16;99643.69;;;2.85;81.90
21594;BME280;10959;51.328;7.322;2023-03-03T10:24:53;99650.75;;;2.99;81.78
21594;BME280;10959;51.328;7.322;2023-03-03T10:27:40;99649.06;;;2.79;81.50
21594;BME280;10959;51.328;7.322;2023-03-03T10:30:12;99647.13;;;3.09;81.65
21594;BME280;10959;51.328;7.322;2023-03-03T10:32:45;99647.06;;;3.24;81.36
21594;BME280;10959;51.328;7.322;2023-03-03T10:35:56;99648.94;;;3.01;80.66
21594;BME280;10959;51.328;7.322;2023-03-03T10:38:33;99641.78;;;3.14;80.74
21594;BME280;10959;51.328;7.322;2023-03-03T10:41:12;99634.63;;;3.23;80.74
21594;BME280;10959;51.328;7.322;2023-03-03T10:43:51;99646.16;;;3.22;80.26
21594;BME280;10959;51.328;7.322;2023-03-03T10:46:36;99643.50;;;3.22;80.40
21594;BME280;10959;51.328;7.322;2023-03-03T10:49:21;99645.31;;;3.20;80.24
21594;BME280;10959;51.328;7.322;2023-03-03T10:52:03;99639.97;;;3.23;79.95
21594;BME280;10959;51.328;7.322;2023-03-03T10:54:49;99639.03;;;3.29;80.33
21594;BME280;10959;51.328;7.322;2023-03-03T10:57:23;99643.31;;;3.47;79.72
21594;BME280;10959;51.328;7.322;2023-03-03T11:00:14;99640.78;;;3.28;79.39
21594;BME280;10959;51.328;7.322;2023-03-03T11:02:52;99645.31;;;3.20;79.53
21594;BME280;10959;51.328;7.322;2023-03-03T11:05:34;99642.56;;;3.28;79.32
21594;BME280;10959;51.328;7.322;2023-03-03T11:08:08;99648.53;;;3.62;78.40
21594;BME280;10959;51.328;7.322;2023-03-03T11:10:47;99644.03;;;3.71;78.12
21594;BME280;10959;51.328;7.322;2023-03-03T11:13:20;99650.13;;;3.85;77.85
21594;BME280;10959;51.328;7.322;2023-03-03T11:18:51;99644.25;;;3.41;78.33
21594;BME280;10959;51.328;7.322;2023-03-03T11:21:24;99641.53;;;3.52;78.25
21594;BME280;10959;51.328;7.322;2023-03-03T11:24:03;99645.25;;;3.25;78.10
21594;BME280;10959;51.328;7.322;2023-03-03T11:26:43;99641.56;;;3.49;78.07
21594;BME280;10959;51.328;7.322;2023-03-03T11:29:29;99634.53;;;3.36;78.50
21594;BME280;10959;51.328;7.322;2023-03-03T11:32:07;99636.31;;;3.37;78.02
21594;BME280;10959;51.328;7.322;2023-03-03T11:34:49;99625.47;;;3.61;77.62
21594;BME280;10959;51.328;7.322;2023-03-03T11:37:22;99627.00;;;3.87;77.29
21594;BME280;10959;51.328;7.322;2023-03-03T11:39:52;99621.66;;;3.92;77.15
21594;BME280;10959;51.328;7.322;2023-03-03T11:42:24;99627.16;;;3.73;77.31
21594;BME280;10959;51.328;7.322;2023-03-03T11:44:54;99616.31;;;3.93;77.04
21594;BME280;10959;51.328;7.322;2023-03-03T11:47:27;99616.34;;;3.87;77.17
21594;BME280;10959;51.328;7.322;2023-03-03T11:50:00;99626.38;;;3.62;77.53
21594;BME280;10959;51.328;7.322;2023-03-03T11:52:33;99619.97;;;3.83;77.01
21594;BME280;10959;51.328;7.322;2023-03-03T11:55:06;99620.03;;;3.74;76.92
21594;BME280;10959;51.328;7.322;2023-03-03T11:57:37;99623.63;;;3.68;77.25
21594;BME280;10959;51.328;7.322;2023-03-03T12:00:27;99621.16;;;3.45;77.27
21594;BME280;10959;51.328;7.322;2023-03-03T12:03:29;99617.63;;;3.44;77.47
21594;BME280;10959;51.328;7.322;2023-03-03T12:06:12;99625.34;;;3.77;77.00
21594;BME280;10959;51.328;7.322;2023-03-03T12:11:47;99607.56;;;3.79;76.61
21594;BME280;10959;51.328;7.322;2023-03-03T12:14:27;99603.03;;;3.90;76.58
21594;BME280;10959;51.328;7.322;2023-03-03T12:17:00;99601.94;;;4.10;76.59
21594;BME280;10959;51.328;7.322;2023-03-03T12:19:40;99599.28;;;4.08;76.15
21594;BME280;10959;51.328;7.322;2023-03-03T12:22:36;99601.84;;;4.19;75.54
21594;BME280;10959;51.328;7.322;2023-03-03T12:25:25;99595.72;;;4.11;75.35
21594;BME280;10959;51.328;7.322;2023-03-03T12:28:00;99596.59;;;4.13;75.48
21594;BME280;10959;51.328;7.322;2023-03-03T12:30:56;99592.91;;;4.23;75.05
21594;BME280;10959;51.328;7.322;2023-03-03T12:33:35;99586.34;;;4.54;75.00
21594;BME280;10959;51.328;7.322;2023-03-03T12:36:15;99588.16;;;4.52;74.49
21594;BME280;10959;51.328;7.322;2023-03-03T12:38:50;99590.72;;;4.59;74.28
21594;BME280;10959;51.328;7.322;2023-03-03T12:41:22;99586.13;;;4.69;74.16
21594;BME280;10959;51.328;7.322;2023-03-03T12:43:56;99580.53;;;4.89;73.84
21594;BME280;10959;51.328;7.322;2023-03-03T12:46:30;99586.59;;;5.00;73.44
21594;BME280;10959;51.328;7.322;2023-03-03T12:48:59;99581.06;;;5.13;73.42
21594;BME280;10959;51.328;7.322;2023-03-03T12:51:35;99584.81;;;4.99;72.55
21594;BME280;10959;51.328;7.322;2023-03-03T12:54:22;99595.84;;;4.75;72.72
21594;BME280;10959;51.328;7.322;2023-03-03T12:56:57;99590.41;;;4.81;72.94
21594;BME280;10959;51.328;7.322;2023-03-03T12:59:35;99588.50;;;4.92;72.83
21594;BME280;10959;51.328;7.322;2023-03-03T13:02:33;99592.97;;;4.89;72.73
21594;BME280;10959;51.328;7.322;2023-03-03T13:05:14;99586.66;;;4.94;72.83
21594;BME280;10959;51.328;7.322;2023-03-03T13:07:46;99584.81;;;4.99;72.67
21594;BME280;10959;51.328;7.322;2023-03-03T13:10:19;99580.50;;;4.91;73.13
21594;BME280;10959;51.328;7.322;2023-03-03T13:12:52;99581.72;;;4.66;73.61
21594;BME280;10959;51.328;7.322;2023-03-03T13:15:23;99585.03;;;4.84;73.71
21594;BME280;10959;51.328;7.322;2023-03-03T13:17:58;99574.94;;;5.06;73.06
21594;BME280;10959;51.328;7.322;2023-03-03T13:20:35;99584.72;;;5.06;72.51
21594;BME280;10959;51.328;7.322;2023-03-03T13:23:12;99586.66;;;4.97;71.99
21594;BME280;10959;51.328;7.322;2023-03-03T13:25:48;99590.06;;;5.09;72.12
21594;BME280;10959;51.328;7.322;2023-03-03T13:28:24;99596.97;;;5.22;72.15
21594;BME280;10959;51.328;7.322;2023-03-03T13:30:59;99596.72;;;5.38;72.19
21594;BME280;10959;51.328;7.322;2023-03-03T13:33:29;99592.81;;;5.57;71.84
21594;BME280;10959;51.328;7.322;2023-03-03T13:36:00;99590.16;;;5.57;70.83
21594;BME280;10959;51.328;7.322;2023-03-03T13:38:31;99582.16;;;5.57;70.29
21594;BME280;10959;51.328;7.322;2023-03-03T13:41:04;99584.44;;;5.27;70.13
21594;BME280;10959;51.328;7.322;2023-03-03T13:43:39;99587.84;;;5.35;70.52
21594;BME280;10959;51.328;7.322;2023-03-03T13:46:14;99581.75;;;5.26;70.51
21594;BME280;10959;51.328;7.322;2023-03-03T13:48:54;99584.59;;;5.15;70.85
21594;BME280;10959;51.328;7.322;2023-03-03T13:51:34;99574.78;;;5.17;71.18